Kezdőlap
METAR-TAF:

METAR-TAF

Repülőterek :

Grand Marais, Minnesota, Amerikai Egyesült Államok

földrajzi szélesség: 47-50N, földrajzi hosszúság: 090-23W, magasság: 186 m

Jelenlegi meteorológiai megfigyelések

A jelentés 1 órával és 7 perccel ezelõtt készült, 17:56 UTC
Nyugati szél 7 kt
Hőmérséklet 17°C
Páratartalom 82%
Légköri nyomás 1017 hPa

METAR: KGNA 191756Z AUTO 27007KT 17/14 A3004 RMK AO1 SLP170 T01720139 10183 20144 56011

Idő: 14:03 (19:03 UTC)


TAF: hiányzik

Meteorológiai megfigyelések és előrejelzések több, mint 4000 repülőtéren (METAR és TAF jelentéseket).

A térképen piros és sárga pontok jelzik az elérhető meteorológiai állomásokat.

Mozgassa az egeret a pont fölött, hogy megjelenjen az állomás neve.

Azután kattintson az időjárási megfigyelések és előrejelzések megtekintéséhez.

A térkép megváltoztatása: kattintson a fekete keresztel jelölt zöld gombra ráközelítéshez, a vonallal jelölt zöld gombra távolításhoz, vagy a zöld nyilakra a szomszédos térképek eléréséhez.


METAR-TAF: